Defiance, Missouri
Current Conditions -  °F | °C
As of 7:54 AM on Thursday 29 Jan 2015 (Local Time) from KSUS Reporting Station
Overcast Overcast  
Wind Chill: 31°   Ceiling: 2300
Heat Index: 40°   Visibility: 9mi
Dew Point: 31°   Wind: 18mph
Humidity: 70%   Direction: 300°WNW
Pressure: 30.05"   Gusts: 26mph
Location:  38.63°N, 90.78°W
Report Text: KSUS 291354Z 30016G23KT 9SM OVC023 04/M01 A3005 RMK AO2 PK WND 30034/1316 SLP179 T00441006
Loading
Personal Weather Stations






























Interactive Weather Map New forecast layout! Learn more

10-Day Weather Forecast

Advertisements
Track Severe Weather on mobile